Los Posos, Valles Caldera, New Mexico Weather observations

Data are for 10 minute period ending at time listed.
 Day   Time   Solar   Ave.   Ave.  Ave.  Vector  Max.   Baro.   Total    
  of    of     Rad.   Air    Rel.  Wind   Wind   Wind  Press.  Precip.   
Year   Day            Temp.  Hum.  Speed  Dir.   Gust                    
2014   (MST)  Kw/m2    F      %     mph   deg.    mph    mb.     in.     
-------------------------------------------------------------------------
 208    2:30   0.00   56.9    73    4.0   177     7.8   99999.0    0.00 
 208    2:40   0.00   56.9    72    3.2   184     6.0   99999.0    0.00 
 208    2:50   0.00   56.5    73    3.2   163     5.4   99999.0    0.00 
 208    3:00   0.00   55.6    76    0.8    60     4.2   99999.0    0.00 
 208    3:10   0.00   54.1    81    2.7   316     4.2   99999.0    0.00 
 208    3:20   0.00   53.2    84    0.8     0     4.2   99999.0    0.00 
 208    3:30   0.00   53.0    84    0.0     0     0.0   99999.0    0.00 
 208    3:40   0.00   52.6    86    0.7   274     3.0   99999.0    0.00 
 208    3:50   0.00   51.7    87    2.0   353     4.2   99999.0    0.00 
 208    4:00   0.00   51.2    89    1.9    20     4.8   99999.0    0.00 
 208    4:10   0.00   50.7    89    0.2    46     2.4   99999.0    0.00 
 208    4:20   0.00   50.3    90    0.8   253     3.0   99999.0    0.00 
 208    4:30   0.00   49.7    90    0.4   310     2.4   99999.0    0.00 
 208    4:40   0.00   49.2    91    1.8   318     3.0   99999.0    0.00 
 208    4:50   0.00   49.3    92    0.9   287     2.4   99999.0    0.00 
 208    5:00   0.00   49.5    91    2.5   313     4.8   99999.0    0.00 
 208    5:10   0.00   49.6    90    0.5   310     3.0   99999.0    0.00 
 208    5:20   0.00   49.3    89    0.9   239     2.4   99999.0    0.00 
 208    5:30   0.01   48.5    90    0.6   326     1.8   99999.0    0.00 
 208    5:40   0.01   47.6    91    0.3   288     1.8   99999.0    0.00 
 208    5:50   0.03   47.7    92    0.2   292     1.8   99999.0    0.00 
 208    6:00   0.09   49.1    92    0.6   292     2.4   99999.0    0.00 
 208    6:10   0.10   50.8    90    1.3   294     3.0   99999.0    0.00 
 208    6:20   0.14   52.7    89    0.2   348     2.4   99999.0    0.00 
 208    6:30   0.15   54.5    81    2.2   334     4.2   99999.0    0.00 
 208    6:40   0.11   54.7    81    0.0   145     1.8   99999.0    0.00 
 208    6:50   0.11   55.3    80    4.4   160     7.2   99999.0    0.00 
 208    7:00   0.13   55.7    78    2.0   206     4.8   99999.0    0.00 
 208    7:10   0.15   57.3    77    1.2    88     3.0   99999.0    0.00 
 208    7:20   0.24   58.2    75    0.1    88     1.8   99999.0    0.00 
 208    7:30   0.35   61.5    69    0.1   330     1.2   99999.0    0.00 
 208    7:40   0.54   65.4    61    0.3    53     2.4   99999.0    0.00 
 208    7:50   0.54   69.4    53    1.3    50     3.6   99999.0    0.00 
 208    8:00   0.51   71.8    46    1.6    51     3.6   99999.0    0.00 
 208    8:10   0.53   73.3    44    2.3   359     5.4   99999.0    0.00 
 208    8:20   0.56   73.9    44    1.9   355     3.6   99999.0    0.00 
 208    8:30   0.59   73.8    39    2.5   357     4.8   99999.0    0.00 
 208    8:40   0.62   75.0    37    4.4   358     6.6   99999.0    0.00 
 208    8:50   0.66   75.2    37    3.8   357     6.6   99999.0    0.00 
 208    9:00   0.69   74.1    37    3.8   345     7.2   99999.0    0.00 
 208    9:10   0.65   74.9    36    2.4   358     5.4   99999.0    0.00 
 208    9:20   0.71   75.7    35    2.9    23     4.8   99999.0    0.00 
 208    9:30   0.77   75.9    34    2.6   316     5.4   99999.0    0.00 
 208    9:40   0.79   74.3    34    3.0    91     6.0   99999.0    0.00 
 208    9:50   0.81   74.1    36    3.5   121     6.6   99999.0    0.00 
 208   10:00   0.85   75.4    36    2.7    74     5.4   99999.0    0.00 
 208   10:10   0.86   76.4    32    3.0   275     6.0   99999.0    0.00 
 208   10:20   0.76   74.4    36    2.3   134     6.0   99999.0    0.00 
 208   10:30   0.95   74.9    39    4.6   149     8.4   99999.0    0.00 
 208   10:40   0.24   72.1    41    3.6   134     7.2   99999.0    0.00 
 208   10:50   0.20   71.7    44    2.1   123     6.0   99999.0    0.00 
 208   11:00   0.20   70.4    44    4.8   151     9.6   99999.0    0.00 
 208   11:10   0.27   70.6    45    3.5   154     5.4   99999.0    0.00 
 208   11:20   0.21   70.6    50    4.2   144     6.6   99999.0    0.00 
 208   11:30   0.19   69.9    52    4.9   144     7.8   99999.0    0.00 
 208   11:40   0.24   70.3    51    3.4   130     7.2   99999.0    0.00 
 208   11:50   0.38   71.5    50    4.1    95    11.3   99999.0    0.00 
 208   12:00   0.62   72.8    49    8.8    75    16.1   99999.0    0.00 
 208   12:10   0.32   71.6    46    7.5   111    14.9   99999.0    0.00 
 208   12:20   0.40   71.6    46    7.6    82    17.3   99999.0    0.00 
 208   12:30   0.14   68.6    50    6.2   279    11.3   99999.0    0.00 
 208   12:40   0.08   64.9    56   10.9   313    19.7   99999.0    0.00 
 208   12:50   0.04   60.5    64   12.1   310    19.7   99999.0    0.00 
 208   13:00   0.02   55.9    78    6.7   332    14.3   99999.0    0.23 
 208   13:10   0.01   51.7    86    8.3   326    14.3   99999.0    0.24 
 208   13:20   0.01   49.6    89    8.1   316    15.5   99999.0    0.06 
 208   13:30   0.01   49.4    90    5.5   327    10.8   99999.0    0.11 
 208   13:40   0.01   49.4    92    4.6   169     9.0   99999.0    0.24 
 208   13:50   0.01   48.7    93    0.8   249     3.0   99999.0    0.07 
 208   14:00   0.01   48.9    94    2.1   255     4.2   99999.0    0.08 
 208   14:10   0.01   49.7    95    3.2   266     5.4   99999.0    0.01 
 208   14:20   0.02   50.3    95    2.6   266     4.2   99999.0    0.00 
 208   14:30   0.02   50.5    95    1.3   226     4.8   99999.0    0.01 
 208   14:40   0.02   50.8    95    1.2   263     3.0   99999.0    0.00 
 208   14:50   0.02   51.1    95    2.5   308     4.8   99999.0    0.00 
 208   15:00   0.02   51.1    95    4.4     2     7.8   99999.0    0.00 
 208   15:10   0.03   51.2    95    6.2    48    11.3   99999.0    0.00 
 208   15:20   0.03   51.5    95    2.2   359     6.0   99999.0    0.00 
 208   15:30   0.04   51.7    95    3.5    37     5.4   99999.0    0.00 
 208   15:40   0.06   51.7    94    2.9   300     4.2   99999.0    0.00 
 208   15:50   0.07   52.0    94    2.2    11     3.6   99999.0    0.00 
 208   16:00   0.08   52.6    94    2.2     3     3.6   99999.0    0.00 
 208   16:10   0.07   52.5    93    2.4   314     3.6   99999.0    0.00 
 208   16:20   0.06   52.6    93    2.8    37     4.2   99999.0    0.00 
 208   16:30   0.07   52.9    93    1.5    73     4.2   99999.0    0.00 
 208   16:40   0.09   53.1    93    0.7   234     3.6   99999.0    0.00 
 208   16:50   0.10   53.6    93    1.5   306     3.0   99999.0    0.00 
 208   17:00   0.09   53.9    93    1.8   292     3.0   99999.0    0.00 
 208   17:10   0.08   53.9    93    1.1   216     3.0   99999.0    0.00 
 208   17:20   0.05   53.9    93    2.0   262     3.6   99999.0    0.00 
 208   17:30   0.05   53.9    94    0.1   312     1.8   99999.0    0.00 
 208   17:40   0.04   53.9    94    1.7   280     3.0   99999.0    0.00 
 208   17:50   0.03   53.8    94    1.3   288     3.6   99999.0    0.00 
 208   18:00   0.03   53.7    94    1.1   254     3.0   99999.0    0.00 
 208   18:10   0.03   53.5    94    2.1   337     4.8   99999.0    0.00 
 208   18:20   0.02   53.5    94    1.6   339     3.6   99999.0    0.00 
 208   18:30   0.01   53.3    94    2.7   335     4.8   99999.0    0.00 
 208   18:40   0.01   53.1    94    1.6   264     2.4   99999.0    0.01 
 208   18:50   0.01   53.2    94    3.5    50     4.8   99999.0    0.00 
 208   19:00   0.00   53.3    94    2.7   306     3.6   99999.0    0.00 
 208   19:10   0.00   53.2    95    4.3   344     7.8   99999.0    0.00 
 208   19:20   0.00   53.5    94    4.1   296     6.6   99999.0    0.03 
 208   19:30   0.00   53.3    93    2.4   292     5.4   99999.0    0.01 
 208   19:40   0.00   53.1    93    2.2   319     4.2   99999.0    0.00 
 208   19:50   0.00   53.1    93    1.7   225     4.2   99999.0    0.00 
 208   20:00   0.00   53.0    94    1.4   317     3.0   99999.0    0.00 
 208   20:10   0.00   52.9    94    3.3   286     9.6   99999.0    0.00 
 208   20:20   0.00   54.0    89    1.7   331     7.2   99999.0    0.00 
 208   20:30   0.00   53.7    91    2.8   100     6.6   99999.0    0.00 
 208   20:40   0.00   55.0    90    3.6   108     9.0   99999.0    0.07 
 208   20:50   0.00   54.9    89    4.0    28     7.8   99999.0    0.00 
 208   21:00   0.00   54.0    91    1.0   328     4.2   99999.0    0.00 
 208   21:10   0.00   53.6    92    1.5   217     4.2   99999.0    0.01 
 208   21:20   0.00   53.6    92    4.6   246     9.0   99999.0    0.23 
 208   21:30   0.00   52.5    93    4.4    34     7.2   99999.0    0.04 
 208   21:40   0.00   52.2    93    5.8    76     9.0   99999.0    0.04 
 208   21:50   0.00   52.2    92    5.8    83     9.0   99999.0    0.01 
 208   22:00   0.00   52.2    91    1.6   276     4.8   99999.0    0.01 
 208   22:10   0.00   51.7    92    2.5   265     7.2   99999.0    0.05 
 208   22:20   0.00   51.4    94    3.3   237     6.6   99999.0    0.10 
 208   22:30   0.00   51.5    91    4.4    33     8.4   99999.0    0.02 
 208   22:40   0.00   51.2    92    2.0   288     5.4   99999.0    0.00 
 208   22:50   0.00   50.8    93    2.1   274     4.8   99999.0    0.00 
 208   23:00   0.00   50.5    94    3.1   290     4.2   99999.0    0.00 
 208   23:10   0.00   50.3    94    2.6   289     4.2   99999.0    0.00 
 208   23:20   0.00   50.0    94    0.9   301     3.0   99999.0    0.00 
 208   23:30   0.00   49.5    94    1.4   317     4.2   99999.0    0.00 
 208   23:40   0.00   49.3    95    3.0   334     4.2   99999.0    0.00 
 208   23:50   0.00   49.5    95    1.6   333     4.2   99999.0    0.00 
 209    0:00   0.00   49.6    95    2.7    16     5.4   99999.0    0.00 
 209    0:10   0.00   49.1    95    2.1   279     3.6   99999.0    0.00 
 209    0:20   0.00   48.4    95    2.2   300     3.6   99999.0    0.01 
 209    0:30   0.00   47.8    95    1.3   284     3.0   99999.0    0.00 
 209    0:40   0.00   47.3    95    0.7   243     1.8   99999.0    0.00 
 209    0:50   0.00   46.9    95    0.8   326     2.4   99999.0    0.00 
 209    1:00   0.00   46.5    95    2.2   279     4.2   99999.0    0.00 
 209    1:10   0.00   46.9    96    0.8   293     3.0   99999.0    0.00 
 209    1:20   0.00   46.5    96    0.2    69     2.4   99999.0    0.00 
 209    1:30   0.00   46.5    96    0.3     6     2.4   99999.0    0.00 
 209    1:40   0.00   46.8    96    0.4     1     1.8   99999.0    0.00 
 209    1:50   0.00   46.5    96    1.3   300     2.4   99999.0    0.00 
 209    2:00   0.00   46.3    96    0.4   299     1.8   99999.0    0.00 
 209    2:10   0.00   46.3    96    0.5   334     1.8   99999.0    0.00 
 209    2:20   0.00   46.0    96    1.7   283     2.4   99999.0    0.00 

Return to Los Posos, Valles Caldera graphs page.


Western Regional Climate Center,wrcc@dri.edu